sensor_id;sensor_type;location;lat;lon;timestamp;P1;durP1;ratioP1;P2;durP2;ratioP2
79047;SDS011;68680;50.764;6.120;2023-09-19T00:00:56;7.97;;;2.17;;
79047;SDS011;68680;50.764;6.120;2023-09-19T00:03:24;5.47;;;1.92;;
79047;SDS011;68680;50.764;6.120;2023-09-19T00:05:49;6.72;;;2.10;;
79047;SDS011;68680;50.764;6.120;2023-09-19T00:08:16;8.18;;;2.15;;
79047;SDS011;68680;50.764;6.120;2023-09-19T00:10:42;4.25;;;1.88;;
79047;SDS011;68680;50.764;6.120;2023-09-19T00:13:09;5.55;;;1.98;;
79047;SDS011;68680;50.764;6.120;2023-09-19T00:15:36;4.97;;;1.92;;
79047;SDS011;68680;50.764;6.120;2023-09-19T00:18:04;5.88;;;2.10;;
79047;SDS011;68680;50.764;6.120;2023-09-19T00:20:32;15.32;;;1.98;;
79047;SDS011;68680;50.764;6.120;2023-09-19T00:23:00;9.48;;;2.30;;
79047;SDS011;68680;50.764;6.120;2023-09-19T00:25:26;10.93;;;2.13;;
79047;SDS011;68680;50.764;6.120;2023-09-19T00:27:52;6.22;;;1.55;;
79047;SDS011;68680;50.764;6.120;2023-09-19T00:30:20;5.97;;;2.05;;
79047;SDS011;68680;50.764;6.120;2023-09-19T00:32:46;7.63;;;1.95;;
79047;SDS011;68680;50.764;6.120;2023-09-19T00:35:13;9.55;;;1.70;;
79047;SDS011;68680;50.764;6.120;2023-09-19T00:37:40;4.25;;;3.15;;
79047;SDS011;68680;50.764;6.120;2023-09-19T00:40:07;12.18;;;2.50;;
79047;SDS011;68680;50.764;6.120;2023-09-19T00:42:35;16.00;;;2.75;;
79047;SDS011;68680;50.764;6.120;2023-09-19T00:45:00;9.45;;;2.28;;
79047;SDS011;68680;50.764;6.120;2023-09-19T00:47:27;8.23;;;1.92;;
79047;SDS011;68680;50.764;6.120;2023-09-19T00:49:53;20.27;;;4.10;;
79047;SDS011;68680;50.764;6.120;2023-09-19T00:52:19;8.43;;;2.25;;
79047;SDS011;68680;50.764;6.120;2023-09-19T00:54:47;6.25;;;1.42;;
79047;SDS011;68680;50.764;6.120;2023-09-19T00:57:13;6.22;;;1.80;;
79047;SDS011;68680;50.764;6.120;2023-09-19T00:59:39;9.18;;;2.38;;
79047;SDS011;68680;50.764;6.120;2023-09-19T01:02:06;5.50;;;1.85;;
79047;SDS011;68680;50.764;6.120;2023-09-19T01:04:31;7.38;;;1.35;;
79047;SDS011;68680;50.764;6.120;2023-09-19T01:06:58;10.00;;;2.13;;
79047;SDS011;68680;50.764;6.120;2023-09-19T01:09:23;11.35;;;2.80;;
79047;SDS011;68680;50.764;6.120;2023-09-19T01:11:51;8.63;;;2.28;;
79047;SDS011;68680;50.764;6.120;2023-09-19T01:14:27;8.38;;;1.95;;
79047;SDS011;68680;50.764;6.120;2023-09-19T01:17:03;10.88;;;1.90;;
79047;SDS011;68680;50.764;6.120;2023-09-19T01:20:02;8.55;;;1.95;;
79047;SDS011;68680;50.764;6.120;2023-09-19T01:22:48;14.95;;;1.83;;
79047;SDS011;68680;50.764;6.120;2023-09-19T01:28:42;11.25;;;2.00;;
79047;SDS011;68680;50.764;6.120;2023-09-19T01:31:19;7.65;;;1.90;;
79047;SDS011;68680;50.764;6.120;2023-09-19T01:33:54;9.73;;;1.88;;
79047;SDS011;68680;50.764;6.120;2023-09-19T01:36:25;8.68;;;2.08;;
79047;SDS011;68680;50.764;6.120;2023-09-19T01:38:53;10.20;;;2.08;;
79047;SDS011;68680;50.764;6.120;2023-09-19T01:41:21;4.20;;;1.73;;
79047;SDS011;68680;50.764;6.120;2023-09-19T01:44:03;7.07;;;1.77;;
79047;SDS011;68680;50.764;6.120;2023-09-19T01:46:40;7.15;;;2.17;;
79047;SDS011;68680;50.764;6.120;2023-09-19T01:49:09;7.38;;;1.45;;
79047;SDS011;68680;50.764;6.120;2023-09-19T01:52:04;6.82;;;1.92;;
79047;SDS011;68680;50.764;6.120;2023-09-19T01:54:36;11.73;;;2.08;;
79047;SDS011;68680;50.764;6.120;2023-09-19T01:57:14;15.77;;;2.03;;
79047;SDS011;68680;50.764;6.120;2023-09-19T01:59:50;11.57;;;1.98;;
79047;SDS011;68680;50.764;6.120;2023-09-19T02:02:23;12.43;;;2.03;;
79047;SDS011;68680;50.764;6.120;2023-09-19T02:04:52;12.80;;;2.73;;
79047;SDS011;68680;50.764;6.120;2023-09-19T02:07:20;6.75;;;1.88;;
79047;SDS011;68680;50.764;6.120;2023-09-19T02:09:47;8.27;;;2.30;;
79047;SDS011;68680;50.764;6.120;2023-09-19T02:12:12;5.82;;;2.15;;
79047;SDS011;68680;50.764;6.120;2023-09-19T02:14:38;9.70;;;1.92;;
79047;SDS011;68680;50.764;6.120;2023-09-19T02:17:04;9.85;;;2.65;;
79047;SDS011;68680;50.764;6.120;2023-09-19T02:19:31;7.95;;;2.22;;
79047;SDS011;68680;50.764;6.120;2023-09-19T02:21:57;14.38;;;2.92;;
79047;SDS011;68680;50.764;6.120;2023-09-19T02:24:23;9.25;;;2.00;;
79047;SDS011;68680;50.764;6.120;2023-09-19T02:26:49;7.65;;;1.75;;
79047;SDS011;68680;50.764;6.120;2023-09-19T02:29:14;7.90;;;1.90;;
79047;SDS011;68680;50.764;6.120;2023-09-19T02:31:40;11.13;;;2.40;;
79047;SDS011;68680;50.764;6.120;2023-09-19T02:34:06;10.50;;;2.17;;
79047;SDS011;68680;50.764;6.120;2023-09-19T02:36:33;12.52;;;2.50;;
79047;SDS011;68680;50.764;6.120;2023-09-19T02:38:59;9.65;;;3.08;;
79047;SDS011;68680;50.764;6.120;2023-09-19T02:41:25;8.13;;;2.08;;
79047;SDS011;68680;50.764;6.120;2023-09-19T02:43:51;9.02;;;2.17;;
79047;SDS011;68680;50.764;6.120;2023-09-19T02:46:17;12.25;;;2.30;;
79047;SDS011;68680;50.764;6.120;2023-09-19T02:48:42;8.63;;;2.25;;
79047;SDS011;68680;50.764;6.120;2023-09-19T02:51:08;9.50;;;2.13;;
79047;SDS011;68680;50.764;6.120;2023-09-19T02:53:35;10.30;;;2.65;;
79047;SDS011;68680;50.764;6.120;2023-09-19T02:56:01;14.05;;;2.78;;
79047;SDS011;68680;50.764;6.120;2023-09-19T02:58:27;10.00;;;2.47;;
79047;SDS011;68680;50.764;6.120;2023-09-19T03:00:53;12.82;;;2.88;;
79047;SDS011;68680;50.764;6.120;2023-09-19T03:03:19;7.43;;;1.83;;
79047;SDS011;68680;50.764;6.120;2023-09-19T03:05:44;13.35;;;2.20;;
79047;SDS011;68680;50.764;6.120;2023-09-19T03:08:10;11.85;;;2.47;;
79047;SDS011;68680;50.764;6.120;2023-09-19T03:10:37;12.32;;;2.17;;
79047;SDS011;68680;50.764;6.120;2023-09-19T03:13:03;11.77;;;2.45;;
79047;SDS011;68680;50.764;6.120;2023-09-19T03:15:29;9.93;;;2.05;;
79047;SDS011;68680;50.764;6.120;2023-09-19T03:17:55;11.05;;;2.22;;
79047;SDS011;68680;50.764;6.120;2023-09-19T03:20:20;11.55;;;2.10;;
79047;SDS011;68680;50.764;6.120;2023-09-19T03:22:46;13.63;;;2.25;;
79047;SDS011;68680;50.764;6.120;2023-09-19T03:25:12;13.13;;;2.65;;
79047;SDS011;68680;50.764;6.120;2023-09-19T03:27:39;5.90;;;1.80;;
79047;SDS011;68680;50.764;6.120;2023-09-19T03:30:06;15.82;;;2.33;;
79047;SDS011;68680;50.764;6.120;2023-09-19T03:32:32;12.25;;;1.90;;
79047;SDS011;68680;50.764;6.120;2023-09-19T03:34:58;9.10;;;2.15;;
79047;SDS011;68680;50.764;6.120;2023-09-19T03:37:24;8.18;;;1.83;;
79047;SDS011;68680;50.764;6.120;2023-09-19T03:39:50;11.77;;;2.67;;
79047;SDS011;68680;50.764;6.120;2023-09-19T03:42:16;11.32;;;2.50;;
79047;SDS011;68680;50.764;6.120;2023-09-19T03:44:43;8.15;;;2.17;;
79047;SDS011;68680;50.764;6.120;2023-09-19T03:47:09;6.80;;;1.95;;
79047;SDS011;68680;50.764;6.120;2023-09-19T03:49:35;18.17;;;2.85;;
79047;SDS011;68680;50.764;6.120;2023-09-19T03:52:00;16.10;;;2.92;;
79047;SDS011;68680;50.764;6.120;2023-09-19T03:54:26;13.68;;;3.08;;
79047;SDS011;68680;50.764;6.120;2023-09-19T03:56:52;15.68;;;2.20;;
79047;SDS011;68680;50.764;6.120;2023-09-19T03:59:18;7.43;;;1.95;;
79047;SDS011;68680;50.764;6.120;2023-09-19T04:01:45;16.17;;;2.33;;
79047;SDS011;68680;50.764;6.120;2023-09-19T04:04:10;14.18;;;2.30;;
79047;SDS011;68680;50.764;6.120;2023-09-19T04:06:36;9.60;;;2.20;;
79047;SDS011;68680;50.764;6.120;2023-09-19T04:09:02;11.90;;;2.17;;
79047;SDS011;68680;50.764;6.120;2023-09-19T04:11:29;11.35;;;2.08;;
79047;SDS011;68680;50.764;6.120;2023-09-19T04:13:55;22.33;;;2.42;;
79047;SDS011;68680;50.764;6.120;2023-09-19T04:16:20;11.88;;;2.95;;
79047;SDS011;68680;50.764;6.120;2023-09-19T04:18:48;13.15;;;2.47;;
79047;SDS011;68680;50.764;6.120;2023-09-19T04:21:13;16.48;;;2.38;;
79047;SDS011;68680;50.764;6.120;2023-09-19T04:23:39;10.13;;;2.35;;
79047;SDS011;68680;50.764;6.120;2023-09-19T04:26:05;13.57;;;2.00;;
79047;SDS011;68680;50.764;6.120;2023-09-19T04:28:31;15.25;;;2.30;;
79047;SDS011;68680;50.764;6.120;2023-09-19T04:30:57;18.60;;;2.25;;
79047;SDS011;68680;50.764;6.120;2023-09-19T04:33:22;16.55;;;2.83;;
79047;SDS011;68680;50.764;6.120;2023-09-19T04:35:50;16.08;;;4.13;;
79047;SDS011;68680;50.764;6.120;2023-09-19T04:38:16;7.82;;;1.90;;
79047;SDS011;68680;50.764;6.120;2023-09-19T04:40:42;11.15;;;2.38;;
79047;SDS011;68680;50.764;6.120;2023-09-19T04:43:08;11.55;;;2.42;;
79047;SDS011;68680;50.764;6.120;2023-09-19T04:45:34;8.65;;;2.10;;
79047;SDS011;68680;50.764;6.120;2023-09-19T04:48:00;17.58;;;2.33;;
79047;SDS011;68680;50.764;6.120;2023-09-19T04:50:26;13.13;;;2.25;;
79047;SDS011;68680;50.764;6.120;2023-09-19T04:52:53;8.02;;;2.38;;
79047;SDS011;68680;50.764;6.120;2023-09-19T04:55:19;8.68;;;1.98;;
79047;SDS011;68680;50.764;6.120;2023-09-19T04:57:45;8.13;;;2.33;;
79047;SDS011;68680;50.764;6.120;2023-09-19T05:00:12;14.50;;;2.83;;
79047;SDS011;68680;50.764;6.120;2023-09-19T05:02:40;12.95;;;2.78;;
79047;SDS011;68680;50.764;6.120;2023-09-19T05:05:06;14.25;;;2.58;;
79047;SDS011;68680;50.764;6.120;2023-09-19T05:07:33;9.68;;;2.40;;
79047;SDS011;68680;50.764;6.120;2023-09-19T05:10:00;9.70;;;1.85;;
79047;SDS011;68680;50.764;6.120;2023-09-19T05:12:26;15.30;;;2.70;;
79047;SDS011;68680;50.764;6.120;2023-09-19T05:14:52;16.67;;;3.72;;
79047;SDS011;68680;50.764;6.120;2023-09-19T05:17:18;12.20;;;2.45;;
79047;SDS011;68680;50.764;6.120;2023-09-19T05:19:44;11.13;;;2.05;;
79047;SDS011;68680;50.764;6.120;2023-09-19T05:22:09;12.70;;;3.05;;
79047;SDS011;68680;50.764;6.120;2023-09-19T05:24:35;10.10;;;2.38;;
79047;SDS011;68680;50.764;6.120;2023-09-19T05:27:02;12.18;;;3.05;;
79047;SDS011;68680;50.764;6.120;2023-09-19T05:29:29;11.48;;;2.55;;
79047;SDS011;68680;50.764;6.120;2023-09-19T05:31:54;15.52;;;2.65;;
79047;SDS011;68680;50.764;6.120;2023-09-19T05:34:20;11.00;;;2.40;;
79047;SDS011;68680;50.764;6.120;2023-09-19T05:36:46;12.35;;;2.85;;
79047;SDS011;68680;50.764;6.120;2023-09-19T05:39:12;8.63;;;1.92;;
79047;SDS011;68680;50.764;6.120;2023-09-19T05:41:37;13.70;;;2.20;;
79047;SDS011;68680;50.764;6.120;2023-09-19T05:44:05;8.07;;;2.30;;
79047;SDS011;68680;50.764;6.120;2023-09-19T05:46:31;15.10;;;2.53;;
79047;SDS011;68680;50.764;6.120;2023-09-19T05:48:56;9.55;;;2.25;;
79047;SDS011;68680;50.764;6.120;2023-09-19T05:51:22;14.38;;;2.92;;
79047;SDS011;68680;50.764;6.120;2023-09-19T05:53:48;15.95;;;2.50;;
79047;SDS011;68680;50.764;6.120;2023-09-19T05:56:14;10.02;;;2.30;;
79047;SDS011;68680;50.764;6.120;2023-09-19T05:58:40;13.00;;;2.88;;
79047;SDS011;68680;50.764;6.120;2023-09-19T06:01:07;11.65;;;2.42;;
79047;SDS011;68680;50.764;6.120;2023-09-19T06:03:33;16.48;;;2.85;;
79047;SDS011;68680;50.764;6.120;2023-09-19T06:05:59;7.40;;;2.22;;
79047;SDS011;68680;50.764;6.120;2023-09-19T06:08:24;24.60;;;8.23;;
79047;SDS011;68680;50.764;6.120;2023-09-19T06:10:50;19.70;;;4.97;;
79047;SDS011;68680;50.764;6.120;2023-09-19T06:13:16;18.88;;;4.40;;
79047;SDS011;68680;50.764;6.120;2023-09-19T06:15:41;23.02;;;4.07;;
79047;SDS011;68680;50.764;6.120;2023-09-19T06:18:11;54.25;;;6.30;;
79047;SDS011;68680;50.764;6.120;2023-09-19T06:20:37;31.98;;;3.88;;
79047;SDS011;68680;50.764;6.120;2023-09-19T06:23:03;25.98;;;3.38;;
79047;SDS011;68680;50.764;6.120;2023-09-19T06:25:28;14.50;;;3.47;;
79047;SDS011;68680;50.764;6.120;2023-09-19T06:27:54;14.38;;;2.50;;
79047;SDS011;68680;50.764;6.120;2023-09-19T06:30:20;28.85;;;4.15;;
79047;SDS011;68680;50.764;6.120;2023-09-19T06:32:47;15.32;;;2.80;;
79047;SDS011;68680;50.764;6.120;2023-09-19T06:35:14;14.27;;;3.60;;
79047;SDS011;68680;50.764;6.120;2023-09-19T06:37:41;9.25;;;1.80;;
79047;SDS011;68680;50.764;6.120;2023-09-19T06:40:08;14.27;;;2.90;;
79047;SDS011;68680;50.764;6.120;2023-09-19T06:42:35;13.77;;;3.78;;
79047;SDS011;68680;50.764;6.120;2023-09-19T06:45:01;16.65;;;7.18;;
79047;SDS011;68680;50.764;6.120;2023-09-19T06:47:28;15.68;;;2.22;;
79047;SDS011;68680;50.764;6.120;2023-09-19T06:49:54;7.00;;;1.95;;
79047;SDS011;68680;50.764;6.120;2023-09-19T06:52:21;16.08;;;3.05;;
79047;SDS011;68680;50.764;6.120;2023-09-19T06:54:47;6.47;;;2.35;;
79047;SDS011;68680;50.764;6.120;2023-09-19T06:57:13;15.75;;;2.92;;
79047;SDS011;68680;50.764;6.120;2023-09-19T06:59:39;19.45;;;5.30;;
79047;SDS011;68680;50.764;6.120;2023-09-19T07:02:05;12.63;;;3.08;;
79047;SDS011;68680;50.764;6.120;2023-09-19T07:04:31;9.60;;;2.30;;
79047;SDS011;68680;50.764;6.120;2023-09-19T07:06:57;13.77;;;3.15;;
79047;SDS011;68680;50.764;6.120;2023-09-19T07:09:24;9.60;;;3.05;;
79047;SDS011;68680;50.764;6.120;2023-09-19T07:11:50;9.93;;;2.00;;
79047;SDS011;68680;50.764;6.120;2023-09-19T07:14:15;19.08;;;3.20;;
79047;SDS011;68680;50.764;6.120;2023-09-19T07:16:41;14.05;;;2.55;;
79047;SDS011;68680;50.764;6.120;2023-09-19T07:19:07;22.27;;;2.53;;
79047;SDS011;68680;50.764;6.120;2023-09-19T07:21:33;12.48;;;2.20;;
79047;SDS011;68680;50.764;6.120;2023-09-19T07:23:59;14.18;;;2.47;;
79047;SDS011;68680;50.764;6.120;2023-09-19T07:26:26;13.05;;;2.33;;
79047;SDS011;68680;50.764;6.120;2023-09-19T07:28:52;9.43;;;2.15;;
79047;SDS011;68680;50.764;6.120;2023-09-19T07:31:18;11.30;;;3.28;;
79047;SDS011;68680;50.764;6.120;2023-09-19T07:33:44;12.32;;;2.83;;
79047;SDS011;68680;50.764;6.120;2023-09-19T07:36:10;9.18;;;2.45;;
79047;SDS011;68680;50.764;6.120;2023-09-19T07:38:36;10.25;;;2.28;;
79047;SDS011;68680;50.764;6.120;2023-09-19T07:41:02;12.85;;;1.98;;
79047;SDS011;68680;50.764;6.120;2023-09-19T07:43:29;11.40;;;2.03;;
79047;SDS011;68680;50.764;6.120;2023-09-19T07:45:54;12.65;;;2.30;;
79047;SDS011;68680;50.764;6.120;2023-09-19T07:48:20;14.05;;;2.00;;
79047;SDS011;68680;50.764;6.120;2023-09-19T07:50:46;9.00;;;1.92;;
79047;SDS011;68680;50.764;6.120;2023-09-19T07:53:12;9.93;;;1.90;;
79047;SDS011;68680;50.764;6.120;2023-09-19T07:55:37;12.95;;;2.80;;
79047;SDS011;68680;50.764;6.120;2023-09-19T07:58:03;10.98;;;3.05;;
79047;SDS011;68680;50.764;6.120;2023-09-19T08:00:30;6.88;;;2.67;;
79047;SDS011;68680;50.764;6.120;2023-09-19T08:02:56;12.30;;;2.90;;
79047;SDS011;68680;50.764;6.120;2023-09-19T08:05:22;14.68;;;3.55;;
79047;SDS011;68680;50.764;6.120;2023-09-19T08:07:47;8.88;;;2.25;;
79047;SDS011;68680;50.764;6.120;2023-09-19T08:10:14;10.68;;;2.10;;
79047;SDS011;68680;50.764;6.120;2023-09-19T08:12:40;10.73;;;2.15;;
79047;SDS011;68680;50.764;6.120;2023-09-19T08:15:07;8.32;;;2.15;;
79047;SDS011;68680;50.764;6.120;2023-09-19T08:17:35;7.93;;;1.45;;
79047;SDS011;68680;50.764;6.120;2023-09-19T08:20:01;7.57;;;1.60;;
79047;SDS011;68680;50.764;6.120;2023-09-19T08:22:27;14.15;;;1.95;;
79047;SDS011;68680;50.764;6.120;2023-09-19T08:24:53;8.32;;;2.70;;
79047;SDS011;68680;50.764;6.120;2023-09-19T08:27:18;9.73;;;1.40;;
79047;SDS011;68680;50.764;6.120;2023-09-19T08:29:44;10.45;;;2.08;;
79047;SDS011;68680;50.764;6.120;2023-09-19T08:32:10;12.48;;;1.70;;
79047;SDS011;68680;50.764;6.120;2023-09-19T08:34:37;11.85;;;2.22;;
79047;SDS011;68680;50.764;6.120;2023-09-19T08:37:03;10.07;;;1.58;;
79047;SDS011;68680;50.764;6.120;2023-09-19T08:39:29;8.88;;;2.38;;
79047;SDS011;68680;50.764;6.120;2023-09-19T08:41:57;9.45;;;2.13;;
79047;SDS011;68680;50.764;6.120;2023-09-19T08:44:23;7.78;;;1.98;;
79047;SDS011;68680;50.764;6.120;2023-09-19T08:46:49;10.00;;;2.20;;
79047;SDS011;68680;50.764;6.120;2023-09-19T08:49:19;8.13;;;2.15;;
79047;SDS011;68680;50.764;6.120;2023-09-19T08:52:01;9.77;;;1.88;;
79047;SDS011;68680;50.764;6.120;2023-09-19T08:54:36;13.38;;;2.40;;
79047;SDS011;68680;50.764;6.120;2023-09-19T08:57:06;7.05;;;1.67;;
79047;SDS011;68680;50.764;6.120;2023-09-19T08:59:32;9.20;;;1.90;;
79047;SDS011;68680;50.764;6.120;2023-09-19T09:01:59;9.13;;;1.50;;
79047;SDS011;68680;50.764;6.120;2023-09-19T09:04:26;9.77;;;2.22;;
79047;SDS011;68680;50.764;6.120;2023-09-19T09:06:52;9.07;;;1.80;;
79047;SDS011;68680;50.764;6.120;2023-09-19T09:09:21;8.95;;;1.95;;
79047;SDS011;68680;50.764;6.120;2023-09-19T09:11:48;11.63;;;2.08;;
79047;SDS011;68680;50.764;6.120;2023-09-19T09:14:14;9.05;;;2.25;;
79047;SDS011;68680;50.764;6.120;2023-09-19T09:16:40;8.60;;;1.85;;
79047;SDS011;68680;50.764;6.120;2023-09-19T09:19:05;20.45;;;2.67;;
79047;SDS011;68680;50.764;6.120;2023-09-19T09:21:31;10.43;;;2.45;;
79047;SDS011;68680;50.764;6.120;2023-09-19T09:23:57;11.48;;;1.67;;
79047;SDS011;68680;50.764;6.120;2023-09-19T09:29:07;7.55;;;1.55;;
79047;SDS011;68680;50.764;6.120;2023-09-19T09:31:33;6.63;;;2.05;;
79047;SDS011;68680;50.764;6.120;2023-09-19T09:33:59;9.65;;;2.05;;
79047;SDS011;68680;50.764;6.120;2023-09-19T09:36:34;5.93;;;1.33;;
79047;SDS011;68680;50.764;6.120;2023-09-19T09:39:01;8.57;;;1.88;;
79047;SDS011;68680;50.764;6.120;2023-09-19T09:41:35;4.88;;;1.60;;
79047;SDS011;68680;50.764;6.120;2023-09-19T09:44:05;6.10;;;2.13;;
79047;SDS011;68680;50.764;6.120;2023-09-19T09:46:38;8.48;;;1.35;;
79047;SDS011;68680;50.764;6.120;2023-09-19T09:49:10;10.82;;;1.95;;
79047;SDS011;68680;50.764;6.120;2023-09-19T09:51:36;8.70;;;1.88;;
79047;SDS011;68680;50.764;6.120;2023-09-19T09:54:09;10.07;;;2.67;;
79047;SDS011;68680;50.764;6.120;2023-09-19T09:56:36;8.35;;;1.85;;
79047;SDS011;68680;50.764;6.120;2023-09-19T09:59:20;7.15;;;1.65;;
79047;SDS011;68680;50.764;6.120;2023-09-19T10:01:46;3.30;;;1.38;;
79047;SDS011;68680;50.764;6.120;2023-09-19T10:04:12;7.75;;;1.92;;
79047;SDS011;68680;50.764;6.120;2023-09-19T10:06:53;6.65;;;1.88;;
79047;SDS011;68680;50.764;6.120;2023-09-19T10:09:18;8.00;;;2.10;;
79047;SDS011;68680;50.764;6.120;2023-09-19T10:11:45;9.63;;;2.15;;
79047;SDS011;68680;50.764;6.120;2023-09-19T10:14:14;8.32;;;2.17;;
79047;SDS011;68680;50.764;6.120;2023-09-19T10:16:45;6.47;;;1.98;;
79047;SDS011;68680;50.764;6.120;2023-09-19T10:19:14;8.93;;;3.05;;
79047;SDS011;68680;50.764;6.120;2023-09-19T10:21:45;7.38;;;1.67;;
79047;SDS011;68680;50.764;6.120;2023-09-19T10:24:12;10.60;;;1.88;;
79047;SDS011;68680;50.764;6.120;2023-09-19T10:26:40;8.90;;;2.50;;
79047;SDS011;68680;50.764;6.120;2023-09-19T10:29:06;13.68;;;2.35;;
79047;SDS011;68680;50.764;6.120;2023-09-19T10:31:33;7.47;;;1.75;;
79047;SDS011;68680;50.764;6.120;2023-09-19T10:34:05;8.95;;;2.08;;
79047;SDS011;68680;50.764;6.120;2023-09-19T10:36:33;9.98;;;1.80;;
79047;SDS011;68680;50.764;6.120;2023-09-19T10:39:00;6.10;;;1.25;;
79047;SDS011;68680;50.764;6.120;2023-09-19T10:41:29;4.60;;;1.50;;
79047;SDS011;68680;50.764;6.120;2023-09-19T10:43:57;7.70;;;1.60;;
79047;SDS011;68680;50.764;6.120;2023-09-19T10:46:24;3.42;;;1.15;;
79047;SDS011;68680;50.764;6.120;2023-09-19T10:48:50;8.18;;;1.67;;
79047;SDS011;68680;50.764;6.120;2023-09-19T10:51:18;9.23;;;1.80;;
79047;SDS011;68680;50.764;6.120;2023-09-19T10:53:49;6.55;;;1.90;;
79047;SDS011;68680;50.764;6.120;2023-09-19T10:56:20;7.55;;;3.15;;
79047;SDS011;68680;50.764;6.120;2023-09-19T10:58:51;3.53;;;1.33;;
79047;SDS011;68680;50.764;6.120;2023-09-19T11:01:16;10.90;;;2.05;;
79047;SDS011;68680;50.764;6.120;2023-09-19T11:03:42;6.65;;;1.30;;
79047;SDS011;68680;50.764;6.120;2023-09-19T11:06:09;7.80;;;1.90;;
79047;SDS011;68680;50.764;6.120;2023-09-19T11:08:52;8.15;;;1.67;;
79047;SDS011;68680;50.764;6.120;2023-09-19T11:11:38;7.95;;;1.13;;
79047;SDS011;68680;50.764;6.120;2023-09-19T11:14:16;5.47;;;1.42;;
79047;SDS011;68680;50.764;6.120;2023-09-19T11:20:19;7.63;;;1.50;;
79047;SDS011;68680;50.764;6.120;2023-09-19T11:25:45;10.77;;;1.65;;
79047;SDS011;68680;50.764;6.120;2023-09-19T11:28:29;7.43;;;2.17;;
79047;SDS011;68680;50.764;6.120;2023-09-19T11:30:59;11.45;;;1.58;;
79047;SDS011;68680;50.764;6.120;2023-09-19T11:37:03;7.43;;;1.40;;
79047;SDS011;68680;50.764;6.120;2023-09-19T11:40:26;12.10;;;1.88;;
79047;SDS011;68680;50.764;6.120;2023-09-19T11:42:52;7.65;;;1.63;;
79047;SDS011;68680;50.764;6.120;2023-09-19T11:48:30;9.07;;;1.88;;
79047;SDS011;68680;50.764;6.120;2023-09-19T11:50:57;16.02;;;3.10;;
79047;SDS011;68680;50.764;6.120;2023-09-19T11:53:23;5.57;;;1.50;;
79047;SDS011;68680;50.764;6.120;2023-09-19T11:55:57;6.00;;;1.00;;
79047;SDS011;68680;50.764;6.120;2023-09-19T11:58:24;2.95;;;1.10;;
79047;SDS011;68680;50.764;6.120;2023-09-19T12:00:53;6.90;;;1.20;;
79047;SDS011;68680;50.764;6.120;2023-09-19T12:03:19;6.55;;;1.10;;
79047;SDS011;68680;50.764;6.120;2023-09-19T12:05:48;8.68;;;1.48;;
79047;SDS011;68680;50.764;6.120;2023-09-19T12:08:14;4.00;;;2.47;;
79047;SDS011;68680;50.764;6.120;2023-09-19T12:10:45;6.45;;;0.90;;
79047;SDS011;68680;50.764;6.120;2023-09-19T12:13:16;2.60;;;0.75;;
79047;SDS011;68680;50.764;6.120;2023-09-19T12:15:42;6.50;;;1.23;;
79047;SDS011;68680;50.764;6.120;2023-09-19T12:18:08;3.45;;;1.10;;
79047;SDS011;68680;50.764;6.120;2023-09-19T12:20:43;7.15;;;1.88;;
79047;SDS011;68680;50.764;6.120;2023-09-19T12:23:12;3.53;;;0.93;;
79047;SDS011;68680;50.764;6.120;2023-09-19T12:25:41;2.88;;;1.02;;
79047;SDS011;68680;50.764;6.120;2023-09-19T12:28:07;5.03;;;1.30;;
79047;SDS011;68680;50.764;6.120;2023-09-19T12:30:34;7.38;;;1.10;;
79047;SDS011;68680;50.764;6.120;2023-09-19T12:33:00;3.08;;;0.95;;
79047;SDS011;68680;50.764;6.120;2023-09-19T12:35:27;5.30;;;1.42;;
79047;SDS011;68680;50.764;6.120;2023-09-19T12:37:53;7.57;;;0.88;;
79047;SDS011;68680;50.764;6.120;2023-09-19T12:40:20;4.70;;;1.60;;
79047;SDS011;68680;50.764;6.120;2023-09-19T12:42:47;4.53;;;0.82;;
79047;SDS011;68680;50.764;6.120;2023-09-19T12:45:15;2.28;;;1.25;;
79047;SDS011;68680;50.764;6.120;2023-09-19T12:47:53;4.25;;;1.33;;
79047;SDS011;68680;50.764;6.120;2023-09-19T12:53:25;3.15;;;0.98;;
79047;SDS011;68680;50.764;6.120;2023-09-19T12:55:57;5.22;;;0.50;;
79047;SDS011;68680;50.764;6.120;2023-09-19T12:58:24;10.82;;;1.10;;
79047;SDS011;68680;50.764;6.120;2023-09-19T13:00:51;5.07;;;1.05;;
79047;SDS011;68680;50.764;6.120;2023-09-19T13:03:24;4.63;;;0.98;;
79047;SDS011;68680;50.764;6.120;2023-09-19T13:05:52;2.30;;;0.57;;
79047;SDS011;68680;50.764;6.120;2023-09-19T13:08:20;3.78;;;0.93;;
79047;SDS011;68680;50.764;6.120;2023-09-19T13:13:44;2.83;;;0.52;;
79047;SDS011;68680;50.764;6.120;2023-09-19T13:16:12;3.60;;;0.50;;
79047;SDS011;68680;50.764;6.120;2023-09-19T13:18:42;3.90;;;0.68;;
79047;SDS011;68680;50.764;6.120;2023-09-19T13:21:11;3.45;;;0.57;;
79047;SDS011;68680;50.764;6.120;2023-09-19T13:23:38;4.15;;;0.70;;
79047;SDS011;68680;50.764;6.120;2023-09-19T13:26:04;5.57;;;0.60;;
79047;SDS011;68680;50.764;6.120;2023-09-19T13:28:29;5.97;;;0.73;;
79047;SDS011;68680;50.764;6.120;2023-09-19T13:30:55;2.45;;;0.65;;
79047;SDS011;68680;50.764;6.120;2023-09-19T13:33:21;2.65;;;0.60;;
79047;SDS011;68680;50.764;6.120;2023-09-19T13:35:48;4.53;;;0.60;;
79047;SDS011;68680;50.764;6.120;2023-09-19T13:38:14;5.25;;;0.80;;
79047;SDS011;68680;50.764;6.120;2023-09-19T13:40:40;5.47;;;0.80;;
79047;SDS011;68680;50.764;6.120;2023-09-19T13:43:06;2.20;;;0.50;;
79047;SDS011;68680;50.764;6.120;2023-09-19T13:45:32;1.52;;;0.60;;
79047;SDS011;68680;50.764;6.120;2023-09-19T13:47:57;2.78;;;0.88;;
79047;SDS011;68680;50.764;6.120;2023-09-19T13:50:23;4.35;;;0.90;;
79047;SDS011;68680;50.764;6.120;2023-09-19T13:52:50;5.35;;;0.55;;
79047;SDS011;68680;50.764;6.120;2023-09-19T13:55:16;1.27;;;0.40;;
79047;SDS011;68680;50.764;6.120;2023-09-19T13:57:42;1.27;;;0.50;;
79047;SDS011;68680;50.764;6.120;2023-09-19T14:00:08;3.08;;;0.80;;
79047;SDS011;68680;50.764;6.120;2023-09-19T14:02:35;3.80;;;0.65;;
79047;SDS011;68680;50.764;6.120;2023-09-19T14:05:01;7.93;;;2.38;;
79047;SDS011;68680;50.764;6.120;2023-09-19T14:07:27;2.53;;;0.50;;
79047;SDS011;68680;50.764;6.120;2023-09-19T14:09:54;2.33;;;0.47;;
79047;SDS011;68680;50.764;6.120;2023-09-19T14:12:20;1.30;;;0.68;;
79047;SDS011;68680;50.764;6.120;2023-09-19T14:14:45;1.40;;;0.45;;
79047;SDS011;68680;50.764;6.120;2023-09-19T14:17:11;2.50;;;0.98;;
79047;SDS011;68680;50.764;6.120;2023-09-19T14:19:37;2.85;;;0.40;;
79047;SDS011;68680;50.764;6.120;2023-09-19T14:22:05;1.92;;;0.60;;
79047;SDS011;68680;50.764;6.120;2023-09-19T14:24:31;3.80;;;0.60;;
79047;SDS011;68680;50.764;6.120;2023-09-19T14:26:58;2.70;;;0.75;;
79047;SDS011;68680;50.764;6.120;2023-09-19T14:29:24;2.22;;;0.60;;
79047;SDS011;68680;50.764;6.120;2023-09-19T14:31:50;2.10;;;0.57;;
79047;SDS011;68680;50.764;6.120;2023-09-19T14:34:16;2.60;;;0.57;;
79047;SDS011;68680;50.764;6.120;2023-09-19T14:36:41;4.55;;;1.00;;
79047;SDS011;68680;50.764;6.120;2023-09-19T14:39:07;2.05;;;0.95;;
79047;SDS011;68680;50.764;6.120;2023-09-19T14:41:33;1.23;;;0.50;;
79047;SDS011;68680;50.764;6.120;2023-09-19T14:44:01;2.30;;;0.55;;
79047;SDS011;68680;50.764;6.120;2023-09-19T14:46:28;4.22;;;0.60;;
79047;SDS011;68680;50.764;6.120;2023-09-19T14:48:53;6.95;;;0.80;;
79047;SDS011;68680;50.764;6.120;2023-09-19T14:51:21;3.35;;;0.55;;
79047;SDS011;68680;50.764;6.120;2023-09-19T14:53:47;5.25;;;1.15;;
79047;SDS011;68680;50.764;6.120;2023-09-19T14:56:13;3.38;;;0.40;;
79047;SDS011;68680;50.764;6.120;2023-09-19T14:58:38;1.83;;;0.60;;
79047;SDS011;68680;50.764;6.120;2023-09-19T15:01:06;2.67;;;0.50;;
79047;SDS011;68680;50.764;6.120;2023-09-19T15:03:33;5.15;;;0.63;;
79047;SDS011;68680;50.764;6.120;2023-09-19T15:06:00;4.75;;;0.60;;
79047;SDS011;68680;50.764;6.120;2023-09-19T15:08:26;6.25;;;0.50;;
79047;SDS011;68680;50.764;6.120;2023-09-19T15:10:52;4.82;;;1.10;;